Ana Sayfa
METAR-TAF:

METAR-TAF

Havaalanları :

Kastamonu Havalimanı

Kastamonu, Türkiye

Enlem: 41-19-01N, Boylam: 33-47-46E, yükseklik: 1073 m

Güncel hava durumu gözlemi

Rapor saat 08:50 UTC de 22 dakika önce yapıldı.
Rüzgar kuzeydoğudan 10 kt, kuzey ve doğu arasında değişken
Sıcaklık 25°C
Nem 44%
Basınç 1020 hPa
Görüş mesafesi 10 km veya daha fazla
1500 m altında bulut yok ve kümülonimbus yok

METAR: LTAL 260850Z 04010KT 350V080 CAVOK 25/12 Q1020

Saat: 12:12 (09:12 UTC)

Tahmin

Rapor saat 07:40 UTC de 1 saat ve 32 dakika önce yapıldı.
Ayın 26'si saat 09 UTC'den ayın 26'si saat 18 UTC'ye kadar geçerli Tahmin
Rüzgar kuzeydoğudan 11 kt
Görüş mesafesi 10 km veya daha fazla
1500 m altında bulut yok ve kümülonimbus yok

TAF: LTAL 260740Z 2609/2618 04011KT CAVOK

4.000'den fazla havaalanı için hava durumu gözlemleri ve tahminleri (METAR ve TAF raporları).

Kullanılabilir istasyonlar harita üzerinde sarı ve kırmızı noktalarla gösterilir.

İstasyonun adını görmek için fareyi noktanın üzerinde gezdirin.

Sonrasında hava gözlem ve tahminlerini görmek için tıklayın.

Haritayı değiştirmek için: yaklaştırmak için siyah artı işaretli yeşil düğmeye ve uzaklaştırmak için de eksi işaretli düğmeye hızla tıklayın; bitişik haritalar için yeşil okları kullanın.


METAR-TAF: